Time;durP1;ratioP1;P1;durP2;ratioP2;P2;SDS_P1;SDS_P2;PMS_P1;PMS_P2;Temp;Humidity;BMP_temperature;BMP_pressure;BME280_temperature;BME280_humidity;BME280_pressure;Samples;Min_cycle;Max_cycle;Signal;HPM_P1;HPM_P2
2023/07/26 00:01:56;;;;;;;;;;;;;;;;;;5091135;28;852;-68
2023/07/26 00:04:21;;;;;;;;;;;;;;;;;;5089646;28;916;-68
2023/07/26 00:06:46;;;;;;;;;;;;;;;;;;5090775;28;1007;-68
2023/07/26 00:09:12;;;;;;;;;;;;;;;;;;5090418;28;1902;-68
2023/07/26 00:11:37;;;;;;;;;;;;;;;;;;5094142;28;998;-68
2023/07/26 00:14:06;;;;;;;;;;;;;;;;;;5094950;28;829;-68
2023/07/26 00:16:31;;;;;;;;;;;;;;;;;;5094210;28;1239;-68
2023/07/26 00:18:57;;;;;;;;;;;;;;;;;;5094479;28;907;-68
2023/07/26 00:21:22;;;;;;;;;;;;;;;;;;5093674;28;1108;-68
2023/07/26 00:23:48;;;;;;;;;;;;;;;;;;5094926;28;919;-68
2023/07/26 00:26:13;;;;;;;;;;;;;;;;;;5093654;28;1194;-68
2023/07/26 00:28:38;;;;;;;;;;;;;;;;;;5090971;28;1914;-68
2023/07/26 00:31:03;;;;;;;;;;;;;;;;;;5073208;28;1183;-68
2023/07/26 00:33:28;;;;;;;;;;;;;;;;;;5075213;28;1018;-68
2023/07/26 00:35:54;;;;;;;;;;;;;;;;;;5075202;28;920;-68
2023/07/26 00:38:19;;;;;;;;;;;;;;;;;;5073569;28;1166;-68
2023/07/26 00:40:44;;;;;;;;;;;;;;;;;;5074731;28;872;-67
2023/07/26 00:43:09;;;;;;;;;;;;;;;;;;5074842;28;816;-68
2023/07/26 00:45:36;;;;;;;;;;;;;;;;;;5074043;28;846;-67
2023/07/26 00:48:02;;;;;;;;;;;;;;;;;;5074155;28;919;-68
2023/07/26 00:50:27;;;;;;;;;;;;;;;;;;5073507;28;1906;-68
2023/07/26 00:52:53;;;;;;;;;;;;;;;;;;5072768;28;919;-68
2023/07/26 00:55:19;;;;;;;;;;;;;;;;;;5073906;28;812;-68
2023/07/26 00:57:45;;;;;;;;;;;;;;;;;;5073404;28;1004;-68
2023/07/26 01:00:11;;;;;;;;;;;;;;;;;;5073659;28;880;-68
2023/07/26 01:02:36;;;;;;;;;;;;;;;;;;5072037;28;923;-68
2023/07/26 01:05:02;;;;;;;;;;;;;;;;;;5073056;28;956;-68
2023/07/26 01:07:47;;;;;;;;;;;;;;;;;;5071777;28;983;-68
2023/07/26 01:10:16;;;;;;;;;;;;;;;;;;5073502;28;1969;-68
2023/07/26 01:12:52;;;;;;;;;;;;;;;;;;5072636;28;1046;-68
2023/07/26 01:15:21;;;;;;;;;;;;;;;;;;5073228;28;1042;-68
2023/07/26 01:17:46;;;;;;;;;;;;;;;;;;5072743;28;920;-67
2023/07/26 01:20:12;;;;;;;;;;;;;;;;;;5072594;28;1226;-67
2023/07/26 01:22:38;;;;;;;;;;;;;;;;;;5073058;28;1017;-67
2023/07/26 01:25:04;;;;;;;;;;;;;;;;;;5072811;28;836;-67
2023/07/26 01:27:29;;;;;;;;;;;;;;;;;;5072758;28;792;-68
2023/07/26 01:29:56;;;;;;;;;;;;;;;;;;5072945;28;1989;-67
2023/07/26 01:32:23;;;;;;;;;;;;;;;;;;5072585;28;863;-67
2023/07/26 01:34:49;;;;;;;;;;;;;;;;;;5072556;28;879;-67
2023/07/26 01:37:14;;;;;;;;;;;;;;;;;;5072520;28;1043;-67
2023/07/26 01:39:40;;;;;;;;;;;;;;;;;;5072714;28;971;-67
2023/07/26 01:42:05;;;;;;;;;;;;;;;;;;5071397;28;887;-67
2023/07/26 01:44:37;;;;;;;;;;;;;;;;;;5072149;28;867;-67
2023/07/26 01:47:02;;;;;;;;;;;;;;;;;;5072594;28;808;-67
2023/07/26 01:49:27;;;;;;;;;;;;;;;;;;5072129;28;1910;-67
2023/07/26 01:51:53;;;;;;;;;;;;;;;;;;5072735;28;868;-67
2023/07/26 01:54:18;;;;;;;;;;;;;;;;;;5072388;28;776;-67
2023/07/26 01:56:43;;;;;;;;;;;;;;;;;;5072281;28;829;-67
2023/07/26 01:59:09;;;;;;;;;;;;;;;;;;5072444;28;932;-67
2023/07/26 02:01:34;;;;;;;;;;;;;;;;;;5072421;28;874;-68
2023/07/26 02:04:00;;;;;;;;;;;;;;;;;;5072177;28;896;-67
2023/07/26 02:06:25;;;;;;;;;;;;;;;;;;5072556;28;856;-67
2023/07/26 02:08:50;;;;;;;;;;;;;;;;;;5073514;28;1963;-67
2023/07/26 02:11:16;;;;;;;;;;;;;;;;;;5073489;28;829;-67
2023/07/26 02:13:41;;;;;;;;;;;;;;;;;;5072999;28;892;-67
2023/07/26 02:16:06;;;;;;;;;;;;;;;;;;5073106;28;1058;-68
2023/07/26 02:18:32;;;;;;;;;;;;;;;;;;5072781;28;883;-67
2023/07/26 02:20:57;;;;;;;;;;;;;;;;;;5073088;28;1333;-67
2023/07/26 02:23:22;;;;;;;;;;;;;;;;;;5073073;28;954;-67
2023/07/26 02:25:48;;;;;;;;;;;;;;;;;;5072926;28;1002;-67
2023/07/26 02:28:13;;;;;;;;;;;;;;;;;;5072786;28;904;-69
2023/07/26 02:30:38;;;;;;;;;;;;;;;;;;5071852;28;1914;-68
2023/07/26 02:33:04;;;;;;;;;;;;;;;;;;5071571;28;841;-67
2023/07/26 02:35:30;;;;;;;;;;;;;;;;;;5070013;28;876;-67
2023/07/26 02:37:55;;;;;;;;;;;;;;;;;;5071828;28;1022;-67
2023/07/26 02:40:21;;;;;;;;;;;;;;;;;;5072000;28;1009;-67
2023/07/26 02:42:46;;;;;;;;;;;;;;;;;;5071492;28;952;-67
2023/07/26 02:45:11;;;;;;;;;;;;;;;;;;5071801;28;907;-67
2023/07/26 02:47:36;;;;;;;;;;;;;;;;;;5071100;28;825;-67
2023/07/26 02:50:04;;;;;;;;;;;;;;;;;;5071671;28;1898;-67
2023/07/26 02:52:29;;;;;;;;;;;;;;;;;;5070949;28;867;-67
2023/07/26 02:54:54;;;;;;;;;;;;;;;;;;5071300;28;912;-67
2023/07/26 02:57:19;;;;;;;;;;;;;;;;;;5071250;28;919;-67
2023/07/26 02:59:45;;;;;;;;;;;;;;;;;;5070977;28;1103;-67
2023/07/26 03:02:10;;;;;;;;;;;;;;;;;;5070810;28;821;-68
2023/07/26 03:04:35;;;;;;;;;;;;;;;;;;5070841;28;938;-68
2023/07/26 03:07:01;;;;;;;;;;;;;;;;;;5071448;28;900;-68
2023/07/26 03:09:26;;;;;;;;;;;;;;;;;;5071660;28;1883;-67
2023/07/26 03:11:51;;;;;;;;;;;;;;;;;;5071090;28;806;-67
2023/07/26 03:14:16;;;;;;;;;;;;;;;;;;5071115;28;816;-67
2023/07/26 03:16:42;;;;;;;;;;;;;;;;;;5071025;28;911;-68
2023/07/26 03:19:07;;;;;;;;;;;;;;;;;;5071471;28;921;-68
2023/07/26 03:21:32;;;;;;;;;;;;;;;;;;5070303;28;1213;-67
2023/07/26 03:23:57;;;;;;;;;;;;;;;;;;5071095;28;904;-67
2023/07/26 03:26:23;;;;;;;;;;;;;;;;;;5070930;28;891;-67
2023/07/26 03:28:48;;;;;;;;;;;;;;;;;;5071183;28;1985;-67
2023/07/26 03:31:13;;;;;;;;;;;;;;;;;;5070967;28;832;-67
2023/07/26 03:33:38;;;;;;;;;;;;;;;;;;5070854;28;915;-67
2023/07/26 03:36:04;;;;;;;;;;;;;;;;;;5071328;28;943;-67
2023/07/26 03:38:29;;;;;;;;;;;;;;;;;;5070551;28;1157;-68
2023/07/26 03:40:54;;;;;;;;;;;;;;;;;;5071188;28;876;-67
2023/07/26 03:43:19;;;;;;;;;;;;;;;;;;5070544;28;978;-67
2023/07/26 03:45:45;;;;;;;;;;;;;;;;;;5074556;28;816;-67
2023/07/26 03:48:10;;;;;;;;;;;;;;;;;;5074837;28;907;-67
2023/07/26 03:50:35;;;;;;;;;;;;;;;;;;5074439;28;1969;-67
2023/07/26 03:53:00;;;;;;;;;;;;;;;;;;5074746;28;1208;-67
2023/07/26 03:55:26;;;;;;;;;;;;;;;;;;5074964;28;805;-67
2023/07/26 03:57:51;;;;;;;;;;;;;;;;;;5075005;28;979;-67
2023/07/26 04:00:16;;;;;;;;;;;;;;;;;;5075712;28;924;-67
2023/07/26 04:02:41;;;;;;;;;;;;;;;;;;5075365;28;880;-67
2023/07/26 04:05:07;;;;;;;;;;;;;;;;;;5075827;28;809;-67
2023/07/26 04:07:35;;;;;;;;;;;;;;;;;;5074793;28;1107;-67
2023/07/26 04:10:00;;;;;;;;;;;;;;;;;;5075765;28;1894;-67
2023/07/26 04:12:25;;;;;;;;;;;;;;;;;;5075196;28;888;-67
2023/07/26 04:14:50;;;;;;;;;;;;;;;;;;5074678;28;836;-67
2023/07/26 04:17:16;;;;;;;;;;;;;;;;;;5074343;28;932;-68
2023/07/26 04:19:41;;;;;;;;;;;;;;;;;;5074139;28;1077;-67
2023/07/26 04:22:06;;;;;;;;;;;;;;;;;;5074588;28;901;-67
2023/07/26 04:24:33;;;;;;;;;;;;;;;;;;5073588;28;995;-67
2023/07/26 04:26:58;;;;;;;;;;;;;;;;;;5074090;28;907;-67
2023/07/26 04:29:24;;;;;;;;;;;;;;;;;;5073740;28;1915;-67
2023/07/26 04:31:49;;;;;;;;;;;;;;;;;;5073666;28;813;-67
2023/07/26 04:34:14;;;;;;;;;;;;;;;;;;5073968;28;884;-67
2023/07/26 04:36:41;;;;;;;;;;;;;;;;;;5073389;28;880;-68
2023/07/26 04:39:06;;;;;;;;;;;;;;;;;;5073785;28;928;-68
2023/07/26 04:41:31;;;;;;;;;;;;;;;;;;5073128;28;956;-68
2023/07/26 04:43:56;;;;;;;;;;;;;;;;;;5073847;28;844;-67
2023/07/26 04:46:22;;;;;;;;;;;;;;;;;;5073441;28;793;-67
2023/07/26 04:48:47;;;;;;;;;;;;;;;;;;5073268;28;1902;-67
2023/07/26 04:51:12;;;;;;;;;;;;;;;;;;5073449;28;896;-69
2023/07/26 04:53:38;;;;;;;;;;;;;;;;;;5073188;28;967;-67
2023/07/26 04:56:03;;;;;;;;;;;;;;;;;;5073021;28;908;-68
2023/07/26 04:58:28;;;;;;;;;;;;;;;;;;5073854;28;999;-69
2023/07/26 05:00:53;;;;;;;;;;;;;;;;;;5073136;28;816;-69
2023/07/26 05:03:19;;;;;;;;;;;;;;;;;;5073699;28;888;-68
2023/07/26 05:05:50;;;;;;;;;;;;;;;;;;5073087;28;987;-69
2023/07/26 05:08:16;;;;;;;;;;;;;;;;;;5073646;28;860;-69
2023/07/26 05:10:41;;;;;;;;;;;;;;;;;;5072698;28;1961;-68
2023/07/26 05:13:06;;;;;;;;;;;;;;;;;;5072968;28;866;-68
2023/07/26 05:15:31;;;;;;;;;;;;;;;;;;5072425;28;907;-68
2023/07/26 05:17:57;;;;;;;;;;;;;;;;;;5073007;28;845;-68
2023/07/26 05:20:22;;;;;;;;;;;;;;;;;;5072767;28;1053;-69
2023/07/26 05:22:48;;;;;;;;;;;;;;;;;;5072682;28;979;-68
2023/07/26 05:25:13;;;;;;;;;;;;;;;;;;5073420;28;805;-69
2023/07/26 05:27:38;;;;;;;;;;;;;;;;;;5073102;28;774;-68
2023/07/26 05:30:05;;;;;;;;;;;;;;;;;;5073262;28;1910;-69
2023/07/26 05:32:30;;;;;;;;;;;;;;;;;;5073285;28;859;-68
2023/07/26 05:34:56;;;;;;;;;;;;;;;;;;5074310;28;828;-68
2023/07/26 05:37:22;;;;;;;;;;;;;;;;;;5074139;28;955;-69
2023/07/26 05:39:51;;;;;;;;;;;;;;;;;;5073123;28;978;-69
2023/07/26 05:42:16;;;;;;;;;;;;;;;;;;5074128;28;816;-68
2023/07/26 05:44:42;;;;;;;;;;;;;;;;;;5073033;28;991;-68
2023/07/26 05:47:09;;;;;;;;;;;;;;;;;;5074014;28;966;-69
2023/07/26 05:49:34;;;;;;;;;;;;;;;;;;5073091;28;1901;-68
2023/07/26 05:51:59;;;;;;;;;;;;;;;;;;5073615;28;959;-69
2023/07/26 05:54:25;;;;;;;;;;;;;;;;;;5073399;28;1025;-68
2023/07/26 05:56:50;;;;;;;;;;;;;;;;;;5073008;28;887;-69
2023/07/26 05:59:15;;;;;;;;;;;;;;;;;;5073000;28;926;-68
2023/07/26 06:01:41;;;;;;;;;;;;;;;;;;5072272;28;927;-68
2023/07/26 06:04:06;;;;;;;;;;;;;;;;;;5071529;28;1234;-68
2023/07/26 06:06:31;;;;;;;;;;;;;;;;;;5068972;28;1227;-68
2023/07/26 06:08:57;;;;;;;;;;;;;;;;;;5068379;28;1961;-68
2023/07/26 06:11:23;;;;;;;;;;;;;;;;;;5074416;28;1297;-68
2023/07/26 06:13:48;;;;;;;;;;;;;;;;;;5071548;28;1262;-68
2023/07/26 06:16:13;;;;;;;;;;;;;;;;;;5084818;28;1215;-68
2023/07/26 06:18:38;;;;;;;;;;;;;;;;;;5069727;28;984;-68
2023/07/26 06:21:04;;;;;;;;;;;;;;;;;;5070157;28;1298;-68
2023/07/26 06:23:29;;;;;;;;;;;;;;;;;;5071093;28;1136;-68
2023/07/26 06:25:55;;;;;;;;;;;;;;;;;;5070396;28;896;-68
2023/07/26 06:28:20;;;;;;;;;;;;;;;;;;5071997;28;1168;-69
2023/07/26 06:30:45;;;;;;;;;;;;;;;;;;5071075;28;1906;-68
2023/07/26 06:33:11;;;;;;;;;;;;;;;;;;5070489;28;844;-68
2023/07/26 06:35:36;;;;;;;;;;;;;;;;;;5071522;28;825;-68
2023/07/26 06:38:01;;;;;;;;;;;;;;;;;;5070959;28;908;-68
2023/07/26 06:40:26;;;;;;;;;;;;;;;;;;5071330;28;1162;-68
2023/07/26 06:42:52;;;;;;;;;;;;;;;;;;5071229;28;845;-68
2023/07/26 06:45:17;;;;;;;;;;;;;;;;;;5071467;28;828;-68
2023/07/26 06:47:42;;;;;;;;;;;;;;;;;;5071165;28;820;-68
2023/07/26 06:50:07;;;;;;;;;;;;;;;;;;5071697;28;1903;-68
2023/07/26 06:52:33;;;;;;;;;;;;;;;;;;5071080;28;947;-68
2023/07/26 06:54:58;;;;;;;;;;;;;;;;;;5070100;28;1027;-68
2023/07/26 06:57:23;;;;;;;;;;;;;;;;;;5071758;28;840;-68
2023/07/26 06:59:49;;;;;;;;;;;;;;;;;;5071045;28;1005;-68
2023/07/26 07:02:14;;;;;;;;;;;;;;;;;;5069769;28;1183;-67
2023/07/26 07:04:39;;;;;;;;;;;;;;;;;;5069454;28;931;-67
2023/07/26 07:07:05;;;;;;;;;;;;;;;;;;5071787;28;1050;-68
2023/07/26 07:09:30;;;;;;;;;;;;;;;;;;5071633;28;1897;-68
2023/07/26 07:11:55;;;;;;;;;;;;;;;;;;5071771;28;970;-68
2023/07/26 07:14:21;;;;;;;;;;;;;;;;;;5071472;28;950;-68
2023/07/26 07:16:46;;;;;;;;;;;;;;;;;;5071338;28;873;-68
2023/07/26 07:19:11;;;;;;;;;;;;;;;;;;5074775;28;1067;-68
2023/07/26 07:21:37;;;;;;;;;;;;;;;;;;5075088;28;1085;-69
2023/07/26 07:24:04;;;;;;;;;;;;;;;;;;5075830;28;986;-67
2023/07/26 07:26:29;;;;;;;;;;;;;;;;;;5075705;28;840;-67
2023/07/26 07:28:55;;;;;;;;;;;;;;;;;;5074891;28;1961;-68
2023/07/26 07:31:20;;;;;;;;;;;;;;;;;;5075664;28;866;-69
2023/07/26 07:33:45;;;;;;;;;;;;;;;;;;5075216;28;892;-69
2023/07/26 07:36:15;;;;;;;;;;;;;;;;;;5075819;28;833;-69
2023/07/26 07:38:40;;;;;;;;;;;;;;;;;;5075239;28;1076;-69
2023/07/26 07:41:06;;;;;;;;;;;;;;;;;;5075729;28;935;-70
2023/07/26 07:43:31;;;;;;;;;;;;;;;;;;5075326;28;913;-70
2023/07/26 07:45:56;;;;;;;;;;;;;;;;;;5075323;28;1010;-70
2023/07/26 07:48:21;;;;;;;;;;;;;;;;;;5076212;28;950;-70
2023/07/26 07:50:52;;;;;;;;;;;;;;;;;;5074753;28;1967;-70
2023/07/26 07:53:17;;;;;;;;;;;;;;;;;;5073595;28;971;-70
2023/07/26 07:55:42;;;;;;;;;;;;;;;;;;5074114;28;892;-69
2023/07/26 07:58:08;;;;;;;;;;;;;;;;;;5074314;28;1027;-69
2023/07/26 08:00:33;;;;;;;;;;;;;;;;;;5074549;28;884;-70
2023/07/26 08:02:58;;;;;;;;;;;;;;;;;;5074248;28;935;-70
2023/07/26 08:05:24;;;;;;;;;;;;;;;;;;5074760;28;887;-69
2023/07/26 08:07:54;;;;;;;;;;;;;;;;;;5071799;28;1206;-70
2023/07/26 08:10:20;;;;;;;;;;;;;;;;;;5073067;28;1934;-70
2023/07/26 08:12:45;;;;;;;;;;;;;;;;;;5080460;28;1207;-70
2023/07/26 08:15:10;;;;;;;;;;;;;;;;;;5094977;28;1143;-69
2023/07/26 08:17:36;;;;;;;;;;;;;;;;;;5094134;28;1236;-70
2023/07/26 08:20:01;;;;;;;;;;;;;;;;;;5094252;28;1398;-70
2023/07/26 08:22:26;;;;;;;;;;;;;;;;;;5094558;28;917;-70
2023/07/26 08:24:52;;;;;;;;;;;;;;;;;;5094048;28;916;-70
2023/07/26 08:27:17;;;;;;;;;;;;;;;;;;5094601;28;793;-70
2023/07/26 08:29:42;;;;;;;;;;;;;;;;;;5093214;28;1914;-70
2023/07/26 08:32:08;;;;;;;;;;;;;;;;;;5093762;28;856;-70
2023/07/26 08:34:33;;;;;;;;;;;;;;;;;;5093562;28;824;-70
2023/07/26 08:36:58;;;;;;;;;;;;;;;;;;5092963;28;888;-69
2023/07/26 08:39:23;;;;;;;;;;;;;;;;;;5094334;28;840;-70
2023/07/26 08:41:49;;;;;;;;;;;;;;;;;;5093940;28;913;-70
2023/07/26 08:44:15;;;;;;;;;;;;;;;;;;5094837;28;848;-70
2023/07/26 08:46:40;;;;;;;;;;;;;;;;;;5094059;28;966;-70
2023/07/26 08:49:06;;;;;;;;;;;;;;;;;;5094691;28;1906;-70
2023/07/26 08:51:31;;;;;;;;;;;;;;;;;;5094478;28;812;-70
2023/07/26 08:53:57;;;;;;;;;;;;;;;;;;5094094;28;848;-70
2023/07/26 08:56:24;;;;;;;;;;;;;;;;;;5094321;28;864;-70
2023/07/26 08:58:49;;;;;;;;;;;;;;;;;;5094005;28;1529;-70
2023/07/26 09:01:14;;;;;;;;;;;;;;;;;;5094320;28;899;-70
2023/07/26 09:03:41;;;;;;;;;;;;;;;;;;5093740;28;931;-70
2023/07/26 09:06:07;;;;;;;;;;;;;;;;;;5092762;28;865;-70
2023/07/26 09:08:32;;;;;;;;;;;;;;;;;;5094058;28;808;-70
2023/07/26 09:10:58;;;;;;;;;;;;;;;;;;5093238;28;1973;-71
2023/07/26 09:13:24;;;;;;;;;;;;;;;;;;5094269;28;914;-70
2023/07/26 09:15:50;;;;;;;;;;;;;;;;;;5093026;28;906;-70
2023/07/26 09:18:16;;;;;;;;;;;;;;;;;;5093515;28;1026;-70
2023/07/26 09:20:41;;;;;;;;;;;;;;;;;;5090453;28;1159;-70
2023/07/26 09:23:08;;;;;;;;;;;;;;;;;;5091252;28;1217;-69
2023/07/26 09:25:35;;;;;;;;;;;;;;;;;;5091831;28;1191;-70
2023/07/26 09:28:01;;;;;;;;;;;;;;;;;;5091361;28;1210;-70
2023/07/26 09:30:27;;;;;;;;;;;;;;;;;;5092181;28;1913;-70
2023/07/26 09:32:54;;;;;;;;;;;;;;;;;;5091767;28;1171;-70
2023/07/26 09:35:19;;;;;;;;;;;;;;;;;;5093884;28;871;-70
2023/07/26 09:37:44;;;;;;;;;;;;;;;;;;5093053;28;947;-71
2023/07/26 09:40:10;;;;;;;;;;;;;;;;;;5091728;28;1266;-70
2023/07/26 09:42:43;;;;;;;;;;;;;;;;;;5092340;28;856;-70
2023/07/26 09:45:13;;;;;;;;;;;;;;;;;;5093271;28;809;-70
2023/07/26 09:47:38;;;;;;;;;;;;;;;;;;5092060;28;950;-70
2023/07/26 09:50:03;;;;;;;;;;;;;;;;;;5092452;28;1934;-69
2023/07/26 09:52:29;;;;;;;;;;;;;;;;;;5091891;28;923;-69
2023/07/26 09:54:55;;;;;;;;;;;;;;;;;;5091872;28;895;-70
2023/07/26 09:57:21;;;;;;;;;;;;;;;;;;5092686;28;824;-70
2023/07/26 09:59:47;;;;;;;;;;;;;;;;;;5083133;28;1104;-70
2023/07/26 10:02:13;;;;;;;;;;;;;;;;;;5072981;28;1231;-69
2023/07/26 10:04:51;;;;;;;;;;;;;;;;;;5071911;28;860;-70
2023/07/26 10:07:18;;;;;;;;;;;;;;;;;;5072006;28;987;-70
2023/07/26 10:09:44;;;;;;;;;;;;;;;;;;5071543;28;1898;-70
2023/07/26 10:12:10;;;;;;;;;;;;;;;;;;5072366;28;891;-70
2023/07/26 10:14:35;;;;;;;;;;;;;;;;;;5072088;28;825;-69
2023/07/26 10:17:02;;;;;;;;;;;;;;;;;;5071156;28;876;-69
2023/07/26 10:19:29;;;;;;;;;;;;;;;;;;5071363;28;1132;-69
2023/07/26 10:21:56;;;;;;;;;;;;;;;;;;5084334;28;1281;-69
2023/07/26 10:24:21;;;;;;;;;;;;;;;;;;5091352;28;848;-68
2023/07/26 10:26:49;;;;;;;;;;;;;;;;;;5092442;28;896;-68
2023/07/26 10:29:15;;;;;;;;;;;;;;;;;;5092226;28;1938;-68
2023/07/26 10:31:40;;;;;;;;;;;;;;;;;;5092203;28;860;-69
2023/07/26 10:34:07;;;;;;;;;;;;;;;;;;5092145;28;881;-69
2023/07/26 10:36:32;;;;;;;;;;;;;;;;;;5092723;28;860;-69
2023/07/26 10:39:05;;;;;;;;;;;;;;;;;;5092084;28;812;-69
2023/07/26 10:41:30;;;;;;;;;;;;;;;;;;5092412;28;841;-69
2023/07/26 10:44:05;;;;;;;;;;;;;;;;;;5090124;28;1238;-69
2023/07/26 10:46:49;;;;;;;;;;;;;;;;;;5092423;28;904;-68
2023/07/26 10:49:16;;;;;;;;;;;;;;;;;;5091911;28;1901;-68
2023/07/26 10:51:49;;;;;;;;;;;;;;;;;;5091374;28;1229;-69
2023/07/26 10:54:30;;;;;;;;;;;;;;;;;;5091020;28;899;-69
2023/07/26 10:57:15;;;;;;;;;;;;;;;;;;5091221;28;875;-69
2023/07/26 10:59:51;;;;;;;;;;;;;;;;;;5090894;28;901;-69
2023/07/26 11:02:33;;;;;;;;;;;;;;;;;;5091123;28;896;-69
2023/07/26 11:05:00;;;;;;;;;;;;;;;;;;5088574;28;946;-69
2023/07/26 11:07:45;;;;;;;;;;;;;;;;;;5090194;28;891;-69
2023/07/26 11:10:17;;;;;;;;;;;;;;;;;;5091378;28;1923;-69
2023/07/26 11:12:43;;;;;;;;;;;;;;;;;;5090926;28;865;-69
2023/07/26 11:15:08;;;;;;;;;;;;;;;;;;5091173;28;903;-69
2023/07/26 11:17:33;;;;;;;;;;;;;;;;;;5091372;28;959;-70
2023/07/26 11:19:58;;;;;;;;;;;;;;;;;;5090568;28;1073;-69
2023/07/26 11:22:24;;;;;;;;;;;;;;;;;;5091724;28;836;-69
2023/07/26 11:24:49;;;;;;;;;;;;;;;;;;5091074;28;896;-69
2023/07/26 11:27:15;;;;;;;;;;;;;;;;;;5092167;28;943;-69
2023/07/26 11:29:41;;;;;;;;;;;;;;;;;;5091798;28;1894;-69
2023/07/26 11:32:06;;;;;;;;;;;;;;;;;;5091826;28;821;-69
2023/07/26 11:34:31;;;;;;;;;;;;;;;;;;5091675;28;816;-69
2023/07/26 11:37:07;;;;;;;;;;;;;;;;;;5091541;28;912;-69
2023/07/26 11:39:32;;;;;;;;;;;;;;;;;;5091385;28;920;-69
2023/07/26 11:41:57;;;;;;;;;;;;;;;;;;5091253;28;990;-70
2023/07/26 11:44:23;;;;;;;;;;;;;;;;;;5090655;28;832;-69
2023/07/26 11:46:48;;;;;;;;;;;;;;;;;;5091161;28;876;-70
2023/07/26 11:49:20;;;;;;;;;;;;;;;;;;5090607;28;1957;-69
2023/07/26 11:51:46;;;;;;;;;;;;;;;;;;5090346;28;841;-70
2023/07/26 11:54:12;;;;;;;;;;;;;;;;;;5090799;28;844;-70
2023/07/26 11:56:37;;;;;;;;;;;;;;;;;;5091043;28;1089;-70
2023/07/26 11:59:03;;;;;;;;;;;;;;;;;;5090271;28;924;-69
2023/07/26 12:01:28;;;;;;;;;;;;;;;;;;5090972;28;1367;-70
2023/07/26 12:03:54;;;;;;;;;;;;;;;;;;5090422;28;896;-69
2023/07/26 12:06:20;;;;;;;;;;;;;;;;;;5093084;28;905;-69
2023/07/26 12:08:47;;;;;;;;;;;;;;;;;;5092889;28;844;-70
2023/07/26 12:11:16;;;;;;;;;;;;;;;;;;5094506;28;1963;-70
2023/07/26 12:13:41;;;;;;;;;;;;;;;;;;5094573;28;903;-69
2023/07/26 12:16:09;;;;;;;;;;;;;;;;;;5094041;28;825;-70
2023/07/26 12:18:34;;;;;;;;;;;;;;;;;;5093041;28;903;-70
2023/07/26 12:21:06;;;;;;;;;;;;;;;;;;5093474;28;1268;-70
2023/07/26 12:23:51;;;;;;;;;;;;;;;;;;5094057;28;900;-69
2023/07/26 12:26:18;;;;;;;;;;;;;;;;;;5093826;28;824;-70
2023/07/26 12:28:43;;;;;;;;;;;;;;;;;;5093808;28;908;-70
2023/07/26 12:31:16;;;;;;;;;;;;;;;;;;5083076;28;1914;-70
2023/07/26 12:33:52;;;;;;;;;;;;;;;;;;5072649;28;1145;-69
2023/07/26 12:36:17;;;;;;;;;;;;;;;;;;5073467;28;1013;-70
2023/07/26 12:38:43;;;;;;;;;;;;;;;;;;5086464;28;1215;-70
2023/07/26 12:41:08;;;;;;;;;;;;;;;;;;5076762;28;1163;-70
2023/07/26 12:43:34;;;;;;;;;;;;;;;;;;5071051;28;1278;-69
2023/07/26 12:46:03;;;;;;;;;;;;;;;;;;5070467;28;1258;-69
2023/07/26 12:48:29;;;;;;;;;;;;;;;;;;5084034;28;1187;-69
2023/07/26 12:50:55;;;;;;;;;;;;;;;;;;5092620;28;1964;-70
2023/07/26 12:53:21;;;;;;;;;;;;;;;;;;5093369;28;915;-69
2023/07/26 12:55:46;;;;;;;;;;;;;;;;;;5093425;28;1210;-69
2023/07/26 12:58:11;;;;;;;;;;;;;;;;;;5092298;28;936;-70
2023/07/26 13:00:37;;;;;;;;;;;;;;;;;;5092783;28;824;-70
2023/07/26 13:03:03;;;;;;;;;;;;;;;;;;5093478;28;804;-70
2023/07/26 13:05:28;;;;;;;;;;;;;;;;;;5093494;28;931;-70
2023/07/26 13:07:53;;;;;;;;;;;;;;;;;;5093630;28;1000;-69
2023/07/26 13:10:20;;;;;;;;;;;;;;;;;;5092241;28;1910;-69
2023/07/26 13:12:45;;;;;;;;;;;;;;;;;;5093445;28;958;-69
2023/07/26 13:15:10;;;;;;;;;;;;;;;;;;5093127;28;939;-69
2023/07/26 13:17:36;;;;;;;;;;;;;;;;;;5093788;28;802;-69
2023/07/26 13:20:02;;;;;;;;;;;;;;;;;;5093720;28;1225;-69
2023/07/26 13:22:28;;;;;;;;;;;;;;;;;;5094177;28;1166;-69
2023/07/26 13:24:53;;;;;;;;;;;;;;;;;;5093671;28;1181;-69
2023/07/26 13:27:18;;;;;;;;;;;;;;;;;;5093917;28;1078;-69
2023/07/26 13:29:43;;;;;;;;;;;;;;;;;;5093790;28;1914;-69
2023/07/26 13:32:09;;;;;;;;;;;;;;;;;;5092986;28;1324;-69
2023/07/26 13:34:34;;;;;;;;;;;;;;;;;;5093547;28;927;-69
2023/07/26 13:36:59;;;;;;;;;;;;;;;;;;5093198;28;1057;-69
2023/07/26 13:39:25;;;;;;;;;;;;;;;;;;5091505;28;845;-69
2023/07/26 13:41:51;;;;;;;;;;;;;;;;;;5092581;28;887;-69
2023/07/26 13:44:16;;;;;;;;;;;;;;;;;;5092607;28;857;-69
2023/07/26 13:46:41;;;;;;;;;;;;;;;;;;5092484;28;995;-69
2023/07/26 13:49:06;;;;;;;;;;;;;;;;;;5091926;28;1984;-69
2023/07/26 13:51:32;;;;;;;;;;;;;;;;;;5092761;28;844;-69
2023/07/26 13:53:57;;;;;;;;;;;;;;;;;;5092355;28;864;-69
2023/07/26 13:56:23;;;;;;;;;;;;;;;;;;5091558;28;1151;-69
2023/07/26 13:58:48;;;;;;;;;;;;;;;;;;5089574;28;1155;-70
2023/07/26 14:01:14;;;;;;;;;;;;;;;;;;5088818;28;1294;-69
2023/07/26 14:03:39;;;;;;;;;;;;;;;;;;5092465;28;841;-69
2023/07/26 14:06:04;;;;;;;;;;;;;;;;;;5092061;28;915;-69
2023/07/26 14:08:30;;;;;;;;;;;;;;;;;;5091100;28;1789;-69
2023/07/26 14:10:55;;;;;;;;;;;;;;;;;;5091914;28;1988;-69
2023/07/26 14:13:20;;;;;;;;;;;;;;;;;;5092210;28;935;-69
2023/07/26 14:15:46;;;;;;;;;;;;;;;;;;5092107;28;828;-69
2023/07/26 14:18:11;;;;;;;;;;;;;;;;;;5092701;28;849;-69
2023/07/26 14:20:36;;;;;;;;;;;;;;;;;;5090426;28;1156;-69
2023/07/26 14:23:02;;;;;;;;;;;;;;;;;;5091780;28;865;-69
2023/07/26 14:25:27;;;;;;;;;;;;;;;;;;5092141;28;917;-69
2023/07/26 14:27:53;;;;;;;;;;;;;;;;;;5090756;28;844;-69
2023/07/26 14:30:18;;;;;;;;;;;;;;;;;;5091505;28;1914;-69
2023/07/26 14:32:43;;;;;;;;;;;;;;;;;;5092250;28;859;-69
2023/07/26 14:35:08;;;;;;;;;;;;;;;;;;5091553;28;915;-70
2023/07/26 14:37:34;;;;;;;;;;;;;;;;;;5092092;28;879;-69
2023/07/26 14:40:00;;;;;;;;;;;;;;;;;;5091903;28;883;-70
2023/07/26 14:42:25;;;;;;;;;;;;;;;;;;5090690;28;2260;-69
2023/07/26 14:44:50;;;;;;;;;;;;;;;;;;5091306;28;868;-70
2023/07/26 14:47:15;;;;;;;;;;;;;;;;;;5091701;28;896;-69
2023/07/26 14:49:40;;;;;;;;;;;;;;;;;;5092035;28;1940;-70
2023/07/26 14:52:06;;;;;;;;;;;;;;;;;;5092232;28;891;-70
2023/07/26 14:54:31;;;;;;;;;;;;;;;;;;5090578;28;880;-70
2023/07/26 14:56:56;;;;;;;;;;;;;;;;;;5089293;28;891;-69
2023/07/26 14:59:22;;;;;;;;;;;;;;;;;;5090118;28;1048;-70
2023/07/26 15:01:47;;;;;;;;;;;;;;;;;;5090055;28;812;-69
2023/07/26 15:04:12;;;;;;;;;;;;;;;;;;5090568;28;883;-69
2023/07/26 15:06:38;;;;;;;;;;;;;;;;;;5090700;28;1007;-70
2023/07/26 15:09:03;;;;;;;;;;;;;;;;;;5090138;28;1906;-70
2023/07/26 15:11:28;;;;;;;;;;;;;;;;;;5091805;28;891;-70
2023/07/26 15:13:53;;;;;;;;;;;;;;;;;;5091838;28;868;-69
2023/07/26 15:16:19;;;;;;;;;;;;;;;;;;5091758;28;990;-70
2023/07/26 15:18:44;;;;;;;;;;;;;;;;;;5091481;28;963;-70
2023/07/26 15:21:09;;;;;;;;;;;;;;;;;;5091919;28;1200;-70
2023/07/26 15:23:35;;;;;;;;;;;;;;;;;;5091324;28;860;-69
2023/07/26 15:26:00;;;;;;;;;;;;;;;;;;5090654;28;840;-70
2023/07/26 15:28:25;;;;;;;;;;;;;;;;;;5091410;28;777;-69
2023/07/26 15:30:52;;;;;;;;;;;;;;;;;;5090410;28;1974;-69
2023/07/26 15:33:17;;;;;;;;;;;;;;;;;;5091045;28;875;-70
2023/07/26 15:35:42;;;;;;;;;;;;;;;;;;5091129;28;828;-70
2023/07/26 15:38:08;;;;;;;;;;;;;;;;;;5090926;28;982;-70
2023/07/26 15:40:34;;;;;;;;;;;;;;;;;;5093713;28;908;-69
2023/07/26 15:42:59;;;;;;;;;;;;;;;;;;5093137;28;1205;-69
2023/07/26 15:45:24;;;;;;;;;;;;;;;;;;5095047;28;974;-69
2023/07/26 15:47:50;;;;;;;;;;;;;;;;;;5093425;28;919;-69
2023/07/26 15:50:15;;;;;;;;;;;;;;;;;;5094393;28;1913;-70
2023/07/26 15:52:40;;;;;;;;;;;;;;;;;;5094548;28;899;-70
2023/07/26 15:55:08;;;;;;;;;;;;;;;;;;5094713;28;904;-70
2023/07/26 15:57:33;;;;;;;;;;;;;;;;;;5092820;28;1622;-70
2023/07/26 15:59:59;;;;;;;;;;;;;;;;;;5094421;28;1015;-70
2023/07/26 16:02:24;;;;;;;;;;;;;;;;;;5093975;28;887;-69
2023/07/26 16:04:49;;;;;;;;;;;;;;;;;;5094259;28;813;-70
2023/07/26 16:07:14;;;;;;;;;;;;;;;;;;5094779;28;895;-70
2023/07/26 16:09:40;;;;;;;;;;;;;;;;;;5094062;28;1885;-70
2023/07/26 16:12:05;;;;;;;;;;;;;;;;;;5093926;28;920;-70
2023/07/26 16:14:30;;;;;;;;;;;;;;;;;;5094214;28;904;-70
2023/07/26 16:16:56;;;;;;;;;;;;;;;;;;5094521;28;862;-70
2023/07/26 16:19:21;;;;;;;;;;;;;;;;;;5094165;28;1191;-70
2023/07/26 16:21:46;;;;;;;;;;;;;;;;;;5092914;28;1061;-70
2023/07/26 16:24:11;;;;;;;;;;;;;;;;;;5092575;28;887;-71
2023/07/26 16:26:37;;;;;;;;;;;;;;;;;;5094645;28;962;-70
2023/07/26 16:29:02;;;;;;;;;;;;;;;;;;5093447;28;1026;-70
2023/07/26 16:31:27;;;;;;;;;;;;;;;;;;5094121;28;1965;-70
2023/07/26 16:33:52;;;;;;;;;;;;;;;;;;5094553;28;903;-63
2023/07/26 16:36:18;;;;;;;;;;;;;;;;;;5094090;28;907;-64
2023/07/26 16:38:43;;;;;;;;;;;;;;;;;;5094163;28;923;-64
2023/07/26 16:41:08;;;;;;;;;;;;;;;;;;5093975;28;907;-64
2023/07/26 16:43:34;;;;;;;;;;;;;;;;;;5094011;28;888;-63
2023/07/26 16:45:59;;;;;;;;;;;;;;;;;;5094266;28;920;-63
2023/07/26 16:48:24;;;;;;;;;;;;;;;;;;5078211;28;1160;-64
2023/07/26 16:50:50;;;;;;;;;;;;;;;;;;5076199;28;2272;-64
2023/07/26 16:53:15;;;;;;;;;;;;;;;;;;5080901;28;1183;-64
2023/07/26 16:55:40;;;;;;;;;;;;;;;;;;5073969;28;1214;-64
2023/07/26 16:58:05;;;;;;;;;;;;;;;;;;5071946;28;1197;-64
2023/07/26 17:00:31;;;;;;;;;;;;;;;;;;5081199;28;1242;-64
2023/07/26 17:02:56;;;;;;;;;;;;;;;;;;5091122;28;1229;-64
2023/07/26 17:05:22;;;;;;;;;;;;;;;;;;5090735;28;1167;-64
2023/07/26 17:07:47;;;;;;;;;;;;;;;;;;5092160;28;1230;-63